sensor_id;sensor_type;location;lat;lon;timestamp;temperature;humidity
13960;DHT22;7052;51.050;3.716;2024-03-17T00:01:24;9.90;91.80
13960;DHT22;7052;51.050;3.716;2024-03-17T00:03:50;9.90;91.50
13960;DHT22;7052;51.050;3.716;2024-03-17T00:06:17;9.90;91.80
13960;DHT22;7052;51.050;3.716;2024-03-17T00:08:44;9.90;91.60
13960;DHT22;7052;51.050;3.716;2024-03-17T00:11:11;9.80;91.60
13960;DHT22;7052;51.050;3.716;2024-03-17T00:13:38;9.80;92.00
13960;DHT22;7052;51.050;3.716;2024-03-17T00:16:05;9.80;91.80
13960;DHT22;7052;51.050;3.716;2024-03-17T00:18:33;9.80;92.00
13960;DHT22;7052;51.050;3.716;2024-03-17T00:21:01;9.70;92.20
13960;DHT22;7052;51.050;3.716;2024-03-17T00:23:28;9.70;92.20
13960;DHT22;7052;51.050;3.716;2024-03-17T00:25:56;9.70;92.40
13960;DHT22;7052;51.050;3.716;2024-03-17T00:28:23;9.70;92.60
13960;DHT22;7052;51.050;3.716;2024-03-17T00:30:51;9.60;92.80
13960;DHT22;7052;51.050;3.716;2024-03-17T00:33:17;9.60;92.80
13960;DHT22;7052;51.050;3.716;2024-03-17T00:35:44;9.70;93.20
13960;DHT22;7052;51.050;3.716;2024-03-17T00:38:10;9.70;92.90
13960;DHT22;7052;51.050;3.716;2024-03-17T00:40:43;9.70;92.90
13960;DHT22;7052;51.050;3.716;2024-03-17T00:43:13;9.70;92.90
13960;DHT22;7052;51.050;3.716;2024-03-17T00:45:40;9.70;93.00
13960;DHT22;7052;51.050;3.716;2024-03-17T00:48:07;9.70;93.20
13960;DHT22;7052;51.050;3.716;2024-03-17T00:50:35;9.70;93.30
13960;DHT22;7052;51.050;3.716;2024-03-17T00:53:01;9.70;93.30
13960;DHT22;7052;51.050;3.716;2024-03-17T00:55:34;9.70;93.20
13960;DHT22;7052;51.050;3.716;2024-03-17T00:58:01;9.70;93.40
13960;DHT22;7052;51.050;3.716;2024-03-17T01:00:30;9.60;93.30
13960;DHT22;7052;51.050;3.716;2024-03-17T01:02:58;9.70;93.50
13960;DHT22;7052;51.050;3.716;2024-03-17T01:05:25;9.70;93.50
13960;DHT22;7052;51.050;3.716;2024-03-17T01:07:53;9.70;93.50
13960;DHT22;7052;51.050;3.716;2024-03-17T01:10:21;9.70;93.70
13960;DHT22;7052;51.050;3.716;2024-03-17T01:12:47;9.70;93.80
13960;DHT22;7052;51.050;3.716;2024-03-17T01:15:14;9.70;93.80
13960;DHT22;7052;51.050;3.716;2024-03-17T01:17:42;9.70;93.90
13960;DHT22;7052;51.050;3.716;2024-03-17T01:20:10;9.60;93.90
13960;DHT22;7052;51.050;3.716;2024-03-17T01:22:36;9.60;93.80
13960;DHT22;7052;51.050;3.716;2024-03-17T01:25:05;9.60;93.90
13960;DHT22;7052;51.050;3.716;2024-03-17T01:27:32;9.60;94.10
13960;DHT22;7052;51.050;3.716;2024-03-17T01:29:59;9.50;94.30
13960;DHT22;7052;51.050;3.716;2024-03-17T01:32:25;9.50;94.50
13960;DHT22;7052;51.050;3.716;2024-03-17T01:34:56;9.40;94.80
13960;DHT22;7052;51.050;3.716;2024-03-17T01:37:22;9.40;95.00
13960;DHT22;7052;51.050;3.716;2024-03-17T01:39:50;9.40;95.20
13960;DHT22;7052;51.050;3.716;2024-03-17T01:42:19;9.40;95.40
13960;DHT22;7052;51.050;3.716;2024-03-17T01:44:46;9.40;95.70
13960;DHT22;7052;51.050;3.716;2024-03-17T01:47:13;9.40;95.80
13960;DHT22;7052;51.050;3.716;2024-03-17T01:49:40;9.40;95.90
13960;DHT22;7052;51.050;3.716;2024-03-17T01:52:10;9.40;96.00
13960;DHT22;7052;51.050;3.716;2024-03-17T01:54:37;9.40;96.20
13960;DHT22;7052;51.050;3.716;2024-03-17T01:57:04;9.40;96.20
13960;DHT22;7052;51.050;3.716;2024-03-17T01:59:32;9.40;96.20
13960;DHT22;7052;51.050;3.716;2024-03-17T02:02:00;9.40;96.20
13960;DHT22;7052;51.050;3.716;2024-03-17T02:04:27;9.40;96.10
13960;DHT22;7052;51.050;3.716;2024-03-17T02:06:53;9.40;96.20
13960;DHT22;7052;51.050;3.716;2024-03-17T02:09:21;9.40;96.30
13960;DHT22;7052;51.050;3.716;2024-03-17T02:11:48;9.40;96.30
13960;DHT22;7052;51.050;3.716;2024-03-17T02:14:15;9.40;96.60
13960;DHT22;7052;51.050;3.716;2024-03-17T02:16:43;9.40;96.70
13960;DHT22;7052;51.050;3.716;2024-03-17T02:19:13;9.40;96.70
13960;DHT22;7052;51.050;3.716;2024-03-17T02:21:41;9.40;96.80
13960;DHT22;7052;51.050;3.716;2024-03-17T02:24:10;9.30;96.80
13960;DHT22;7052;51.050;3.716;2024-03-17T02:26:36;9.30;96.90
13960;DHT22;7052;51.050;3.716;2024-03-17T02:29:07;9.30;97.10
13960;DHT22;7052;51.050;3.716;2024-03-17T02:31:34;9.30;97.10
13960;DHT22;7052;51.050;3.716;2024-03-17T02:34:04;9.20;97.30
13960;DHT22;7052;51.050;3.716;2024-03-17T02:36:31;9.20;97.50
13960;DHT22;7052;51.050;3.716;2024-03-17T02:38:58;9.20;97.60
13960;DHT22;7052;51.050;3.716;2024-03-17T02:41:44;9.20;97.70
13960;DHT22;7052;51.050;3.716;2024-03-17T02:44:11;9.20;97.90
13960;DHT22;7052;51.050;3.716;2024-03-17T02:46:41;9.20;98.10
13960;DHT22;7052;51.050;3.716;2024-03-17T02:49:09;9.10;98.20
13960;DHT22;7052;51.050;3.716;2024-03-17T02:51:39;9.10;98.30
13960;DHT22;7052;51.050;3.716;2024-03-17T02:54:09;9.10;98.50
13960;DHT22;7052;51.050;3.716;2024-03-17T02:56:37;9.10;98.70
13960;DHT22;7052;51.050;3.716;2024-03-17T02:59:06;9.10;98.80
13960;DHT22;7052;51.050;3.716;2024-03-17T03:01:33;9.10;99.40
13960;DHT22;7052;51.050;3.716;2024-03-17T03:04:00;9.00;99.30
13960;DHT22;7052;51.050;3.716;2024-03-17T03:06:28;9.00;99.90
13960;DHT22;7052;51.050;3.716;2024-03-17T03:08:58;9.00;99.80
13960;DHT22;7052;51.050;3.716;2024-03-17T03:11:25;9.10;99.90
13960;DHT22;7052;51.050;3.716;2024-03-17T03:13:53;9.00;99.90
13960;DHT22;7052;51.050;3.716;2024-03-17T03:16:22;9.00;99.90
13960;DHT22;7052;51.050;3.716;2024-03-17T03:18:50;9.00;99.90
13960;DHT22;7052;51.050;3.716;2024-03-17T03:21:17;9.00;99.90
13960;DHT22;7052;51.050;3.716;2024-03-17T03:23:45;9.00;99.90
13960;DHT22;7052;51.050;3.716;2024-03-17T03:26:13;9.00;99.90
13960;DHT22;7052;51.050;3.716;2024-03-17T03:28:40;9.00;99.90
13960;DHT22;7052;51.050;3.716;2024-03-17T03:31:11;9.00;99.90
13960;DHT22;7052;51.050;3.716;2024-03-17T03:33:43;8.90;99.90
13960;DHT22;7052;51.050;3.716;2024-03-17T03:36:12;8.90;99.90
13960;DHT22;7052;51.050;3.716;2024-03-17T03:38:42;8.90;99.90
13960;DHT22;7052;51.050;3.716;2024-03-17T03:41:13;8.90;99.90
13960;DHT22;7052;51.050;3.716;2024-03-17T03:43:42;8.90;99.90
13960;DHT22;7052;51.050;3.716;2024-03-17T03:46:12;8.90;99.90
13960;DHT22;7052;51.050;3.716;2024-03-17T03:48:41;8.90;99.90
13960;DHT22;7052;51.050;3.716;2024-03-17T03:51:09;8.90;99.90
13960;DHT22;7052;51.050;3.716;2024-03-17T03:53:36;8.80;99.90
13960;DHT22;7052;51.050;3.716;2024-03-17T03:56:06;8.80;99.90
13960;DHT22;7052;51.050;3.716;2024-03-17T03:58:37;8.80;99.90
13960;DHT22;7052;51.050;3.716;2024-03-17T04:01:05;8.80;99.90
13960;DHT22;7052;51.050;3.716;2024-03-17T04:03:32;8.80;99.90
13960;DHT22;7052;51.050;3.716;2024-03-17T04:06:05;8.80;99.90
13960;DHT22;7052;51.050;3.716;2024-03-17T04:08:34;8.80;99.90
13960;DHT22;7052;51.050;3.716;2024-03-17T04:11:02;8.70;99.90
13960;DHT22;7052;51.050;3.716;2024-03-17T04:13:29;8.70;99.90
13960;DHT22;7052;51.050;3.716;2024-03-17T04:15:56;8.70;99.90
13960;DHT22;7052;51.050;3.716;2024-03-17T04:18:24;8.70;99.90
13960;DHT22;7052;51.050;3.716;2024-03-17T04:20:55;8.70;99.90
13960;DHT22;7052;51.050;3.716;2024-03-17T04:23:25;8.70;99.90
13960;DHT22;7052;51.050;3.716;2024-03-17T04:25:53;8.70;99.90
13960;DHT22;7052;51.050;3.716;2024-03-17T04:28:20;8.70;99.90
13960;DHT22;7052;51.050;3.716;2024-03-17T04:30:47;8.70;99.90
13960;DHT22;7052;51.050;3.716;2024-03-17T04:33:15;8.70;99.90
13960;DHT22;7052;51.050;3.716;2024-03-17T04:35:46;8.70;99.90
13960;DHT22;7052;51.050;3.716;2024-03-17T04:38:14;8.70;99.90
13960;DHT22;7052;51.050;3.716;2024-03-17T04:40:46;8.70;99.90
13960;DHT22;7052;51.050;3.716;2024-03-17T04:43:15;8.70;99.90
13960;DHT22;7052;51.050;3.716;2024-03-17T04:45:42;8.70;99.90
13960;DHT22;7052;51.050;3.716;2024-03-17T04:48:10;8.70;99.90
13960;DHT22;7052;51.050;3.716;2024-03-17T04:50:38;8.80;99.90
13960;DHT22;7052;51.050;3.716;2024-03-17T04:53:05;8.80;99.90
13960;DHT22;7052;51.050;3.716;2024-03-17T04:55:35;8.90;99.90
13960;DHT22;7052;51.050;3.716;2024-03-17T04:58:04;8.90;99.90
13960;DHT22;7052;51.050;3.716;2024-03-17T05:00:31;8.90;99.90
13960;DHT22;7052;51.050;3.716;2024-03-17T05:02:58;8.90;99.90
13960;DHT22;7052;51.050;3.716;2024-03-17T05:05:25;8.90;99.90
13960;DHT22;7052;51.050;3.716;2024-03-17T05:07:54;8.90;99.90
13960;DHT22;7052;51.050;3.716;2024-03-17T05:10:21;8.90;99.90
13960;DHT22;7052;51.050;3.716;2024-03-17T05:12:50;8.80;99.90
13960;DHT22;7052;51.050;3.716;2024-03-17T05:15:19;8.90;99.90
13960;DHT22;7052;51.050;3.716;2024-03-17T05:17:46;8.90;99.90
13960;DHT22;7052;51.050;3.716;2024-03-17T05:20:13;8.90;99.90
13960;DHT22;7052;51.050;3.716;2024-03-17T05:22:40;8.90;99.90
13960;DHT22;7052;51.050;3.716;2024-03-17T05:25:08;9.00;99.90
13960;DHT22;7052;51.050;3.716;2024-03-17T05:27:35;8.90;99.90
13960;DHT22;7052;51.050;3.716;2024-03-17T05:30:02;8.90;99.90
13960;DHT22;7052;51.050;3.716;2024-03-17T05:32:31;9.00;99.90
13960;DHT22;7052;51.050;3.716;2024-03-17T05:35:00;9.00;99.90
13960;DHT22;7052;51.050;3.716;2024-03-17T05:37:29;9.00;99.90
13960;DHT22;7052;51.050;3.716;2024-03-17T05:39:57;9.00;99.90
13960;DHT22;7052;51.050;3.716;2024-03-17T05:42:24;9.00;99.90
13960;DHT22;7052;51.050;3.716;2024-03-17T05:44:51;9.00;99.90
13960;DHT22;7052;51.050;3.716;2024-03-17T05:47:18;9.00;99.90
13960;DHT22;7052;51.050;3.716;2024-03-17T05:49:47;9.00;99.90
13960;DHT22;7052;51.050;3.716;2024-03-17T05:52:15;9.00;99.90
13960;DHT22;7052;51.050;3.716;2024-03-17T05:54:43;9.10;99.90
13960;DHT22;7052;51.050;3.716;2024-03-17T05:57:10;9.10;99.90
13960;DHT22;7052;51.050;3.716;2024-03-17T05:59:39;9.10;99.90
13960;DHT22;7052;51.050;3.716;2024-03-17T06:02:06;9.10;99.90
13960;DHT22;7052;51.050;3.716;2024-03-17T06:04:35;9.10;99.90
13960;DHT22;7052;51.050;3.716;2024-03-17T06:07:13;9.20;99.90
13960;DHT22;7052;51.050;3.716;2024-03-17T06:09:40;9.20;99.90
13960;DHT22;7052;51.050;3.716;2024-03-17T06:12:07;9.20;99.90
13960;DHT22;7052;51.050;3.716;2024-03-17T06:14:34;9.20;99.90
13960;DHT22;7052;51.050;3.716;2024-03-17T06:17:01;9.30;99.90
13960;DHT22;7052;51.050;3.716;2024-03-17T06:19:30;9.30;99.90
13960;DHT22;7052;51.050;3.716;2024-03-17T06:22:00;9.30;99.90
13960;DHT22;7052;51.050;3.716;2024-03-17T06:24:30;9.30;99.90
13960;DHT22;7052;51.050;3.716;2024-03-17T06:26:57;9.40;99.90
13960;DHT22;7052;51.050;3.716;2024-03-17T06:29:24;9.40;99.90
13960;DHT22;7052;51.050;3.716;2024-03-17T06:31:51;9.40;99.90
13960;DHT22;7052;51.050;3.716;2024-03-17T06:34:20;9.40;99.90
13960;DHT22;7052;51.050;3.716;2024-03-17T06:36:49;9.40;99.90
13960;DHT22;7052;51.050;3.716;2024-03-17T06:39:15;9.50;99.90
13960;DHT22;7052;51.050;3.716;2024-03-17T06:41:44;9.50;99.90
13960;DHT22;7052;51.050;3.716;2024-03-17T06:44:11;9.50;99.90
13960;DHT22;7052;51.050;3.716;2024-03-17T06:46:38;9.60;99.90
13960;DHT22;7052;51.050;3.716;2024-03-17T06:49:06;9.50;99.90
13960;DHT22;7052;51.050;3.716;2024-03-17T06:51:33;9.50;99.90
13960;DHT22;7052;51.050;3.716;2024-03-17T06:54:01;9.60;99.90
13960;DHT22;7052;51.050;3.716;2024-03-17T06:56:29;9.60;99.90
13960;DHT22;7052;51.050;3.716;2024-03-17T06:58:59;9.70;99.90
13960;DHT22;7052;51.050;3.716;2024-03-17T07:01:26;9.70;99.90
13960;DHT22;7052;51.050;3.716;2024-03-17T07:03:54;9.70;99.90
13960;DHT22;7052;51.050;3.716;2024-03-17T07:06:20;9.70;99.90
13960;DHT22;7052;51.050;3.716;2024-03-17T07:08:48;9.80;99.90
13960;DHT22;7052;51.050;3.716;2024-03-17T07:11:15;9.80;99.90
13960;DHT22;7052;51.050;3.716;2024-03-17T07:13:43;9.90;99.90
13960;DHT22;7052;51.050;3.716;2024-03-17T07:16:12;9.90;99.90
13960;DHT22;7052;51.050;3.716;2024-03-17T07:18:39;9.90;99.90
13960;DHT22;7052;51.050;3.716;2024-03-17T07:21:10;10.00;99.90
13960;DHT22;7052;51.050;3.716;2024-03-17T07:23:37;10.00;99.90
13960;DHT22;7052;51.050;3.716;2024-03-17T07:26:06;10.10;99.90
13960;DHT22;7052;51.050;3.716;2024-03-17T07:28:35;10.10;99.90
13960;DHT22;7052;51.050;3.716;2024-03-17T07:31:08;10.20;99.90
13960;DHT22;7052;51.050;3.716;2024-03-17T07:33:38;10.20;99.90
13960;DHT22;7052;51.050;3.716;2024-03-17T07:36:05;10.20;99.90
13960;DHT22;7052;51.050;3.716;2024-03-17T07:38:35;10.20;99.90
13960;DHT22;7052;51.050;3.716;2024-03-17T07:41:08;10.20;99.90
13960;DHT22;7052;51.050;3.716;2024-03-17T07:43:37;10.20;99.90
13960;DHT22;7052;51.050;3.716;2024-03-17T07:46:05;10.30;99.90
13960;DHT22;7052;51.050;3.716;2024-03-17T07:48:34;10.30;99.90
13960;DHT22;7052;51.050;3.716;2024-03-17T07:51:05;10.30;99.90
13960;DHT22;7052;51.050;3.716;2024-03-17T07:53:37;10.30;99.90
13960;DHT22;7052;51.050;3.716;2024-03-17T07:56:06;10.40;99.90
13960;DHT22;7052;51.050;3.716;2024-03-17T07:58:35;10.40;99.90
13960;DHT22;7052;51.050;3.716;2024-03-17T08:01:05;10.40;99.90
13960;DHT22;7052;51.050;3.716;2024-03-17T08:03:33;10.50;99.90
13960;DHT22;7052;51.050;3.716;2024-03-17T08:06:01;10.50;99.90
13960;DHT22;7052;51.050;3.716;2024-03-17T08:08:31;10.50;99.90
13960;DHT22;7052;51.050;3.716;2024-03-17T08:11:01;10.60;99.90
13960;DHT22;7052;51.050;3.716;2024-03-17T08:13:29;10.60;99.90
13960;DHT22;7052;51.050;3.716;2024-03-17T08:16:00;10.70;99.90
13960;DHT22;7052;51.050;3.716;2024-03-17T08:18:31;10.80;99.90
13960;DHT22;7052;51.050;3.716;2024-03-17T08:21:01;10.80;99.90
13960;DHT22;7052;51.050;3.716;2024-03-17T08:23:30;10.80;99.90
13960;DHT22;7052;51.050;3.716;2024-03-17T08:25:59;10.90;99.90
13960;DHT22;7052;51.050;3.716;2024-03-17T08:28:28;10.90;99.90
13960;DHT22;7052;51.050;3.716;2024-03-17T08:30:57;10.90;99.90
13960;DHT22;7052;51.050;3.716;2024-03-17T08:33:26;10.90;99.90
13960;DHT22;7052;51.050;3.716;2024-03-17T08:35:54;10.90;99.90
13960;DHT22;7052;51.050;3.716;2024-03-17T08:38:22;10.90;99.90
13960;DHT22;7052;51.050;3.716;2024-03-17T08:40:52;10.90;99.90
13960;DHT22;7052;51.050;3.716;2024-03-17T08:43:20;10.90;99.90
13960;DHT22;7052;51.050;3.716;2024-03-17T08:45:54;10.90;99.90
13960;DHT22;7052;51.050;3.716;2024-03-17T08:48:24;10.90;99.90
13960;DHT22;7052;51.050;3.716;2024-03-17T08:50:51;11.00;99.90
13960;DHT22;7052;51.050;3.716;2024-03-17T08:53:19;11.00;99.90
13960;DHT22;7052;51.050;3.716;2024-03-17T08:55:46;11.00;99.90
13960;DHT22;7052;51.050;3.716;2024-03-17T08:58:21;11.00;99.90
13960;DHT22;7052;51.050;3.716;2024-03-17T09:00:49;10.90;99.90
13960;DHT22;7052;51.050;3.716;2024-03-17T09:03:16;10.90;99.90
13960;DHT22;7052;51.050;3.716;2024-03-17T09:05:50;10.80;99.90
13960;DHT22;7052;51.050;3.716;2024-03-17T09:08:22;10.80;99.90
13960;DHT22;7052;51.050;3.716;2024-03-17T09:10:51;10.80;99.90
13960;DHT22;7052;51.050;3.716;2024-03-17T09:13:22;10.80;99.90
13960;DHT22;7052;51.050;3.716;2024-03-17T09:15:52;10.80;99.90
13960;DHT22;7052;51.050;3.716;2024-03-17T09:18:20;10.80;99.90
13960;DHT22;7052;51.050;3.716;2024-03-17T09:20:56;10.80;99.90
13960;DHT22;7052;51.050;3.716;2024-03-17T09:23:24;10.90;99.90
13960;DHT22;7052;51.050;3.716;2024-03-17T09:25:56;10.90;99.90
13960;DHT22;7052;51.050;3.716;2024-03-17T09:28:25;10.90;99.90
13960;DHT22;7052;51.050;3.716;2024-03-17T09:30:53;10.90;99.90
13960;DHT22;7052;51.050;3.716;2024-03-17T09:33:29;10.80;99.90
13960;DHT22;7052;51.050;3.716;2024-03-17T09:35:57;10.90;99.90
13960;DHT22;7052;51.050;3.716;2024-03-17T09:38:25;10.80;99.90
13960;DHT22;7052;51.050;3.716;2024-03-17T09:40:54;10.80;99.90
13960;DHT22;7052;51.050;3.716;2024-03-17T09:43:25;10.80;99.90
13960;DHT22;7052;51.050;3.716;2024-03-17T09:45:52;10.80;99.90
13960;DHT22;7052;51.050;3.716;2024-03-17T09:48:23;10.90;99.90
13960;DHT22;7052;51.050;3.716;2024-03-17T09:50:52;10.90;99.90
13960;DHT22;7052;51.050;3.716;2024-03-17T09:53:23;10.90;99.90
13960;DHT22;7052;51.050;3.716;2024-03-17T09:55:54;10.90;99.90
13960;DHT22;7052;51.050;3.716;2024-03-17T09:58:25;10.90;99.90
13960;DHT22;7052;51.050;3.716;2024-03-17T10:00:52;11.00;99.90
13960;DHT22;7052;51.050;3.716;2024-03-17T10:03:44;11.00;99.90
13960;DHT22;7052;51.050;3.716;2024-03-17T10:06:17;11.10;99.90
13960;DHT22;7052;51.050;3.716;2024-03-17T10:08:45;11.20;99.90
13960;DHT22;7052;51.050;3.716;2024-03-17T10:11:13;11.30;99.90
13960;DHT22;7052;51.050;3.716;2024-03-17T10:13:43;11.30;99.90
13960;DHT22;7052;51.050;3.716;2024-03-17T10:16:22;11.50;99.90
13960;DHT22;7052;51.050;3.716;2024-03-17T10:18:51;11.50;99.90
13960;DHT22;7052;51.050;3.716;2024-03-17T10:21:32;11.60;99.90
13960;DHT22;7052;51.050;3.716;2024-03-17T10:24:07;11.70;99.90
13960;DHT22;7052;51.050;3.716;2024-03-17T10:26:42;11.70;99.90
13960;DHT22;7052;51.050;3.716;2024-03-17T10:29:26;11.70;99.90
13960;DHT22;7052;51.050;3.716;2024-03-17T10:31:55;11.80;99.90
13960;DHT22;7052;51.050;3.716;2024-03-17T10:34:24;11.90;99.90
13960;DHT22;7052;51.050;3.716;2024-03-17T10:36:51;12.00;99.90
13960;DHT22;7052;51.050;3.716;2024-03-17T10:39:24;12.00;99.90
13960;DHT22;7052;51.050;3.716;2024-03-17T10:42:00;12.30;99.90
13960;DHT22;7052;51.050;3.716;2024-03-17T10:44:29;12.50;99.90
13960;DHT22;7052;51.050;3.716;2024-03-17T10:47:03;12.60;99.90
13960;DHT22;7052;51.050;3.716;2024-03-17T10:49:36;12.80;99.90
13960;DHT22;7052;51.050;3.716;2024-03-17T10:52:15;12.90;99.90
13960;DHT22;7052;51.050;3.716;2024-03-17T10:54:47;13.00;99.90
13960;DHT22;7052;51.050;3.716;2024-03-17T10:57:30;13.10;99.90
13960;DHT22;7052;51.050;3.716;2024-03-17T11:00:02;13.20;99.90
13960;DHT22;7052;51.050;3.716;2024-03-17T11:02:32;13.20;99.90
13960;DHT22;7052;51.050;3.716;2024-03-17T11:05:02;13.20;99.90
13960;DHT22;7052;51.050;3.716;2024-03-17T11:07:30;13.20;99.90
13960;DHT22;7052;51.050;3.716;2024-03-17T11:09:59;13.30;99.90
13960;DHT22;7052;51.050;3.716;2024-03-17T11:12:43;13.30;99.90
13960;DHT22;7052;51.050;3.716;2024-03-17T11:15:41;13.40;99.90
13960;DHT22;7052;51.050;3.716;2024-03-17T11:18:43;13.60;99.90
13960;DHT22;7052;51.050;3.716;2024-03-17T11:21:24;13.60;99.90
13960;DHT22;7052;51.050;3.716;2024-03-17T11:24:00;13.70;99.90
13960;DHT22;7052;51.050;3.716;2024-03-17T11:26:33;13.80;99.90
13960;DHT22;7052;51.050;3.716;2024-03-17T11:29:01;13.90;99.90
13960;DHT22;7052;51.050;3.716;2024-03-17T11:31:41;14.00;99.90
13960;DHT22;7052;51.050;3.716;2024-03-17T11:37:41;14.00;99.90
13960;DHT22;7052;51.050;3.716;2024-03-17T11:40:23;14.20;99.90
13960;DHT22;7052;51.050;3.716;2024-03-17T11:43:01;14.20;99.90
13960;DHT22;7052;51.050;3.716;2024-03-17T11:45:27;14.40;99.90
13960;DHT22;7052;51.050;3.716;2024-03-17T11:47:57;14.50;99.90
13960;DHT22;7052;51.050;3.716;2024-03-17T11:50:24;14.60;99.90
13960;DHT22;7052;51.050;3.716;2024-03-17T11:52:58;14.60;99.90
13960;DHT22;7052;51.050;3.716;2024-03-17T11:55:24;14.60;99.90
13960;DHT22;7052;51.050;3.716;2024-03-17T11:57:56;14.70;99.90
13960;DHT22;7052;51.050;3.716;2024-03-17T12:00:23;14.70;99.90
13960;DHT22;7052;51.050;3.716;2024-03-17T12:02:52;14.70;99.90
13960;DHT22;7052;51.050;3.716;2024-03-17T12:05:20;14.70;99.90
13960;DHT22;7052;51.050;3.716;2024-03-17T12:07:47;14.80;99.90
13960;DHT22;7052;51.050;3.716;2024-03-17T12:10:16;14.90;99.90
13960;DHT22;7052;51.050;3.716;2024-03-17T12:12:47;15.00;99.90
13960;DHT22;7052;51.050;3.716;2024-03-17T12:15:19;15.10;99.90
13960;DHT22;7052;51.050;3.716;2024-03-17T12:17:53;15.10;99.90
13960;DHT22;7052;51.050;3.716;2024-03-17T12:20:23;15.10;99.90
13960;DHT22;7052;51.050;3.716;2024-03-17T12:22:50;15.10;99.90
13960;DHT22;7052;51.050;3.716;2024-03-17T12:25:19;15.20;99.90
13960;DHT22;7052;51.050;3.716;2024-03-17T12:27:49;15.10;99.90
13960;DHT22;7052;51.050;3.716;2024-03-17T12:30:16;15.10;99.90
13960;DHT22;7052;51.050;3.716;2024-03-17T12:32:44;15.10;99.90
13960;DHT22;7052;51.050;3.716;2024-03-17T12:35:15;15.00;99.90
13960;DHT22;7052;51.050;3.716;2024-03-17T12:37:46;15.00;99.90
13960;DHT22;7052;51.050;3.716;2024-03-17T12:40:23;15.00;99.90
13960;DHT22;7052;51.050;3.716;2024-03-17T12:42:51;15.00;99.90
13960;DHT22;7052;51.050;3.716;2024-03-17T12:45:20;15.10;99.90
13960;DHT22;7052;51.050;3.716;2024-03-17T12:47:48;15.20;99.90
13960;DHT22;7052;51.050;3.716;2024-03-17T12:50:15;15.20;99.90
13960;DHT22;7052;51.050;3.716;2024-03-17T12:52:53;15.30;99.90
13960;DHT22;7052;51.050;3.716;2024-03-17T12:55:22;15.30;99.90
13960;DHT22;7052;51.050;3.716;2024-03-17T12:58:07;15.40;99.90
13960;DHT22;7052;51.050;3.716;2024-03-17T13:00:59;15.50;99.90
13960;DHT22;7052;51.050;3.716;2024-03-17T13:03:40;15.60;99.90
13960;DHT22;7052;51.050;3.716;2024-03-17T13:06:20;15.60;99.90
13960;DHT22;7052;51.050;3.716;2024-03-17T13:08:52;15.60;99.90
13960;DHT22;7052;51.050;3.716;2024-03-17T13:11:20;15.60;99.90
13960;DHT22;7052;51.050;3.716;2024-03-17T13:13:47;15.60;99.90
13960;DHT22;7052;51.050;3.716;2024-03-17T13:16:15;15.50;99.90
13960;DHT22;7052;51.050;3.716;2024-03-17T13:18:43;15.60;99.90
13960;DHT22;7052;51.050;3.716;2024-03-17T13:21:10;15.60;99.90
13960;DHT22;7052;51.050;3.716;2024-03-17T13:23:37;15.60;99.90
13960;DHT22;7052;51.050;3.716;2024-03-17T13:26:06;15.50;99.90
13960;DHT22;7052;51.050;3.716;2024-03-17T13:28:33;15.60;99.90
13960;DHT22;7052;51.050;3.716;2024-03-17T13:31:01;15.50;99.90
13960;DHT22;7052;51.050;3.716;2024-03-17T13:33:30;15.50;99.90
13960;DHT22;7052;51.050;3.716;2024-03-17T13:35:58;15.50;99.90
13960;DHT22;7052;51.050;3.716;2024-03-17T13:38:26;15.50;99.90
13960;DHT22;7052;51.050;3.716;2024-03-17T13:40:54;15.50;99.90
13960;DHT22;7052;51.050;3.716;2024-03-17T13:43:23;15.40;99.90
13960;DHT22;7052;51.050;3.716;2024-03-17T13:45:59;15.40;99.90
13960;DHT22;7052;51.050;3.716;2024-03-17T13:48:29;15.30;99.90
13960;DHT22;7052;51.050;3.716;2024-03-17T13:50:57;15.30;99.90
13960;DHT22;7052;51.050;3.716;2024-03-17T13:53:24;15.30;99.90
13960;DHT22;7052;51.050;3.716;2024-03-17T13:55:52;15.30;99.90
13960;DHT22;7052;51.050;3.716;2024-03-17T13:58:19;15.30;99.90
13960;DHT22;7052;51.050;3.716;2024-03-17T14:00:48;15.30;99.90
13960;DHT22;7052;51.050;3.716;2024-03-17T14:03:15;15.30;99.90
13960;DHT22;7052;51.050;3.716;2024-03-17T14:05:43;15.20;99.90
13960;DHT22;7052;51.050;3.716;2024-03-17T14:08:10;15.20;99.90
13960;DHT22;7052;51.050;3.716;2024-03-17T14:10:38;15.20;99.90
13960;DHT22;7052;51.050;3.716;2024-03-17T14:13:05;15.10;99.90
13960;DHT22;7052;51.050;3.716;2024-03-17T14:15:34;15.20;99.90
13960;DHT22;7052;51.050;3.716;2024-03-17T14:18:02;15.10;99.90
13960;DHT22;7052;51.050;3.716;2024-03-17T14:20:29;15.00;99.90
13960;DHT22;7052;51.050;3.716;2024-03-17T14:22:56;15.00;99.90
13960;DHT22;7052;51.050;3.716;2024-03-17T14:25:24;15.00;99.90
13960;DHT22;7052;51.050;3.716;2024-03-17T14:27:51;14.90;99.90
13960;DHT22;7052;51.050;3.716;2024-03-17T14:30:20;14.90;99.90
13960;DHT22;7052;51.050;3.716;2024-03-17T14:32:49;14.90;99.90
13960;DHT22;7052;51.050;3.716;2024-03-17T14:35:18;14.80;99.90
13960;DHT22;7052;51.050;3.716;2024-03-17T14:37:48;14.80;99.90
13960;DHT22;7052;51.050;3.716;2024-03-17T14:40:16;14.80;99.90
13960;DHT22;7052;51.050;3.716;2024-03-17T14:42:49;14.80;99.90
13960;DHT22;7052;51.050;3.716;2024-03-17T14:45:17;14.80;99.90
13960;DHT22;7052;51.050;3.716;2024-03-17T14:47:46;14.90;99.90
13960;DHT22;7052;51.050;3.716;2024-03-17T14:50:15;14.80;99.90
13960;DHT22;7052;51.050;3.716;2024-03-17T14:52:45;14.80;99.90
13960;DHT22;7052;51.050;3.716;2024-03-17T14:55:12;14.70;99.90
13960;DHT22;7052;51.050;3.716;2024-03-17T14:57:39;14.70;99.90
13960;DHT22;7052;51.050;3.716;2024-03-17T15:00:11;14.60;99.90
13960;DHT22;7052;51.050;3.716;2024-03-17T15:02:44;14.60;99.90
13960;DHT22;7052;51.050;3.716;2024-03-17T15:05:12;14.50;99.90
13960;DHT22;7052;51.050;3.716;2024-03-17T15:07:40;14.50;99.90
13960;DHT22;7052;51.050;3.716;2024-03-17T15:10:11;14.50;99.90
13960;DHT22;7052;51.050;3.716;2024-03-17T15:12:38;14.30;99.90
13960;DHT22;7052;51.050;3.716;2024-03-17T15:15:12;14.30;99.90
13960;DHT22;7052;51.050;3.716;2024-03-17T15:17:39;14.20;99.90
13960;DHT22;7052;51.050;3.716;2024-03-17T15:20:07;14.10;99.90
13960;DHT22;7052;51.050;3.716;2024-03-17T15:22:41;14.10;99.90
13960;DHT22;7052;51.050;3.716;2024-03-17T15:25:10;14.00;99.90
13960;DHT22;7052;51.050;3.716;2024-03-17T15:27:39;14.00;99.90
13960;DHT22;7052;51.050;3.716;2024-03-17T15:30:12;13.90;99.90
13960;DHT22;7052;51.050;3.716;2024-03-17T15:32:41;13.90;99.90
13960;DHT22;7052;51.050;3.716;2024-03-17T15:35:10;13.90;99.90
13960;DHT22;7052;51.050;3.716;2024-03-17T15:37:39;13.80;99.90
13960;DHT22;7052;51.050;3.716;2024-03-17T15:40:12;13.80;99.90
13960;DHT22;7052;51.050;3.716;2024-03-17T15:42:43;13.80;99.90
13960;DHT22;7052;51.050;3.716;2024-03-17T15:45:12;13.70;99.90
13960;DHT22;7052;51.050;3.716;2024-03-17T15:47:41;13.70;99.90
13960;DHT22;7052;51.050;3.716;2024-03-17T15:50:08;13.70;99.90
13960;DHT22;7052;51.050;3.716;2024-03-17T15:52:36;13.70;99.90
13960;DHT22;7052;51.050;3.716;2024-03-17T15:55:04;13.70;99.90
13960;DHT22;7052;51.050;3.716;2024-03-17T15:57:35;13.60;99.90
13960;DHT22;7052;51.050;3.716;2024-03-17T16:00:03;13.60;99.90
13960;DHT22;7052;51.050;3.716;2024-03-17T16:02:34;13.50;99.90
13960;DHT22;7052;51.050;3.716;2024-03-17T16:05:02;13.50;99.90
13960;DHT22;7052;51.050;3.716;2024-03-17T16:07:36;13.50;99.90
13960;DHT22;7052;51.050;3.716;2024-03-17T16:10:07;13.50;99.90